createdAt,value
2023-01-06T00:01:12.362Z,9.16
2023-01-06T00:04:15.336Z,9.19
2023-01-06T00:07:17.694Z,9.35
2023-01-06T00:10:20.582Z,9.15
2023-01-06T00:13:23.997Z,9.20
2023-01-06T00:16:26.931Z,9.19
2023-01-06T00:19:29.548Z,9.15
2023-01-06T00:22:32.248Z,9.01
2023-01-06T00:25:35.519Z,9.28
2023-01-06T00:28:39.900Z,9.26
2023-01-06T00:31:42.197Z,9.08
2023-01-06T00:34:44.996Z,9.01
2023-01-06T00:37:47.451Z,9.05
2023-01-06T00:40:50.107Z,9.05
2023-01-06T00:43:52.556Z,9.20
2023-01-06T00:46:55.208Z,9.06
2023-01-06T00:49:57.598Z,9.07
2023-01-06T00:53:00.379Z,9.22
2023-01-06T00:56:02.893Z,9.05
2023-01-06T00:59:07.063Z,9.08
2023-01-06T01:02:09.520Z,9.02
2023-01-06T01:05:12.247Z,9.12
2023-01-06T01:08:14.877Z,9.15
2023-01-06T01:11:36.174Z,9.01
2023-01-06T01:14:43.942Z,9.13
2023-01-06T01:17:46.573Z,9.01
2023-01-06T01:20:48.960Z,9.15
2023-01-06T01:23:51.803Z,9.06
2023-01-06T01:26:54.889Z,9.00
2023-01-06T01:29:57.464Z,9.13
2023-01-06T01:32:59.862Z,9.10
2023-01-06T01:36:06.804Z,8.93
2023-01-06T01:39:09.388Z,8.92
2023-01-06T01:42:18.084Z,8.87
2023-01-06T01:45:29.447Z,8.84
2023-01-06T01:48:35.449Z,8.98
2023-01-06T01:51:42.288Z,8.97
2023-01-06T01:54:46.153Z,8.96
2023-01-06T01:58:17.048Z,8.82
2023-01-06T02:01:20.361Z,8.88
2023-01-06T02:04:26.039Z,8.86
2023-01-06T02:07:28.698Z,8.70
2023-01-06T02:10:32.648Z,8.76
2023-01-06T02:13:38.702Z,8.92
2023-01-06T02:17:14.902Z,8.92
2023-01-06T02:20:45.051Z,8.92
2023-01-06T02:24:08.490Z,8.90
2023-01-06T02:27:56.329Z,8.93
2023-01-06T02:31:17.247Z,8.93
2023-01-06T02:34:54.867Z,8.94
2023-01-06T02:38:48.059Z,8.92
2023-01-06T02:42:05.144Z,8.90
2023-01-06T02:45:14.006Z,8.86
2023-01-06T02:48:35.317Z,8.83
2023-01-06T02:52:05.468Z,8.78
2023-01-06T02:55:43.300Z,8.74
2023-01-06T02:58:59.594Z,8.70
2023-01-06T03:02:04.601Z,8.64
2023-01-06T03:05:10.251Z,8.46
2023-01-06T03:08:18.843Z,8.45
2023-01-06T03:11:21.744Z,8.42
2023-01-06T03:14:39.246Z,8.51
2023-01-06T03:17:41.723Z,8.53
2023-01-06T03:20:45.443Z,8.37
2023-01-06T03:23:48.216Z,8.50
2023-01-06T03:26:52.911Z,8.49
2023-01-06T03:29:55.729Z,8.34
2023-01-06T03:33:17.287Z,8.46
2023-01-06T03:36:40.851Z,8.44
2023-01-06T03:39:49.627Z,8.42
2023-01-06T03:43:13.048Z,8.11
2023-01-06T03:46:27.017Z,8.40
2023-01-06T03:49:35.584Z,8.34
2023-01-06T03:52:48.226Z,8.29
2023-01-06T03:55:58.627Z,8.22
2023-01-06T03:59:05.757Z,8.19
2023-01-06T04:02:09.716Z,8.26
2023-01-06T04:05:20.033Z,8.23
2023-01-06T04:08:23.154Z,8.24
2023-01-06T04:11:44.878Z,8.08
2023-01-06T04:14:48.317Z,8.19
2023-01-06T04:17:52.376Z,8.05
2023-01-06T04:20:55.031Z,8.06
2023-01-06T04:23:59.181Z,8.20
2023-01-06T04:27:01.591Z,8.18
2023-01-06T04:30:05.715Z,7.99
2023-01-06T04:33:08.848Z,8.15
2023-01-06T04:36:12.798Z,8.05
2023-01-06T04:39:15.653Z,8.15
2023-01-06T04:42:18.206Z,8.14
2023-01-06T04:45:20.600Z,8.08
2023-01-06T04:48:23.207Z,8.14
2023-01-06T04:51:25.559Z,8.15
2023-01-06T04:54:28.572Z,7.99
2023-01-06T04:57:30.953Z,7.97
2023-01-06T05:00:34.090Z,8.16
2023-01-06T05:03:37.119Z,8.01
2023-01-06T05:06:40.095Z,8.16
2023-01-06T05:09:42.528Z,8.12
2023-01-06T05:12:45.134Z,8.18
2023-01-06T05:15:47.453Z,8.23
2023-01-06T05:18:50.608Z,8.23
2023-01-06T05:21:53.002Z,8.20
2023-01-06T05:24:55.612Z,8.22
2023-01-06T05:27:58.004Z,8.20
2023-01-06T05:31:01.559Z,8.20
2023-01-06T05:34:03.873Z,8.21
2023-01-06T05:37:06.574Z,8.15
2023-01-06T05:40:09.547Z,8.22
2023-01-06T05:43:12.158Z,8.07
2023-01-06T05:46:14.598Z,8.04
2023-01-06T05:49:17.249Z,8.05
2023-01-06T05:52:19.607Z,8.05
2023-01-06T05:55:22.234Z,8.15
2023-01-06T05:58:24.583Z,8.06
2023-01-06T06:01:29.722Z,8.07
2023-01-06T06:04:32.441Z,8.26
2023-01-06T06:07:34.775Z,8.14
2023-01-06T06:10:37.400Z,8.30
2023-01-06T06:13:45.582Z,8.32
2023-01-06T06:16:48.283Z,8.19
2023-01-06T06:19:50.720Z,8.34
2023-01-06T06:22:53.428Z,8.17
2023-01-06T06:25:55.801Z,8.35
2023-01-06T06:28:58.601Z,8.35
2023-01-06T06:32:01.327Z,8.35
2023-01-06T06:35:06.769Z,8.35
2023-01-06T06:38:09.083Z,8.18
2023-01-06T06:41:12.372Z,8.17
2023-01-06T06:44:15.067Z,8.33
2023-01-06T06:47:17.732Z,8.20
2023-01-06T06:50:20.077Z,8.37
2023-01-06T06:53:22.731Z,8.37
2023-01-06T06:56:25.282Z,8.33
2023-01-06T06:59:27.925Z,8.25
2023-01-06T07:02:30.314Z,8.39
2023-01-06T07:05:32.916Z,8.37
2023-01-06T07:08:35.254Z,8.37
2023-01-06T07:11:37.989Z,8.38
2023-01-06T07:14:40.355Z,8.27
2023-01-06T07:17:43.049Z,8.24
2023-01-06T07:20:53.018Z,8.37
2023-01-06T07:23:55.742Z,8.30
2023-01-06T07:26:58.393Z,8.25
2023-01-06T07:30:02.291Z,8.23
2023-01-06T07:33:04.744Z,8.41
2023-01-06T07:36:08.024Z,8.42
2023-01-06T07:39:10.369Z,8.48
2023-01-06T07:42:13.056Z,8.51
2023-01-06T07:45:15.473Z,8.53
2023-01-06T07:48:18.355Z,8.51
2023-01-06T07:51:22.168Z,8.63
2023-01-06T07:54:24.902Z,8.68
2023-01-06T07:57:28.936Z,8.60
2023-01-06T08:00:31.653Z,8.74
2023-01-06T08:03:34.776Z,8.69
2023-01-06T08:06:40.517Z,8.94
2023-01-06T08:09:43.521Z,9.00
2023-01-06T08:12:45.868Z,9.03
2023-01-06T08:15:51.887Z,9.34
2023-01-06T08:18:54.701Z,9.38
2023-01-06T08:21:57.371Z,9.58
2023-01-06T08:24:59.724Z,9.77
2023-01-06T08:28:02.414Z,10.11
2023-01-06T08:31:08.268Z,10.19
2023-01-06T08:34:14.496Z,10.39
2023-01-06T08:37:17.046Z,10.92
2023-01-06T08:40:19.807Z,11.22
2023-01-06T08:43:22.718Z,11.70
2023-01-06T08:46:26.608Z,12.27
2023-01-06T08:49:29.055Z,12.57
2023-01-06T08:52:32.270Z,12.50
2023-01-06T08:55:37.718Z,12.50
2023-01-06T08:58:40.531Z,12.74
2023-01-06T09:01:44.262Z,13.12
2023-01-06T09:04:48.700Z,13.44
2023-01-06T09:07:51.149Z,13.24
2023-01-06T09:10:53.755Z,12.77
2023-01-06T09:13:56.115Z,12.37
2023-01-06T09:16:58.780Z,12.22
2023-01-06T09:20:01.184Z,11.89
2023-01-06T09:23:05.171Z,11.57
2023-01-06T09:26:09.147Z,11.39
2023-01-06T09:29:11.871Z,11.22
2023-01-06T09:32:14.459Z,11.22
2023-01-06T09:35:17.183Z,10.92
2023-01-06T09:38:19.487Z,10.97
2023-01-06T09:42:03.942Z,10.76
2023-01-06T09:45:08.689Z,10.86
2023-01-06T09:48:16.454Z,10.85
2023-01-06T09:51:23.177Z,10.81
2023-01-06T09:54:31.520Z,10.79
2023-01-06T09:58:13.028Z,10.87
2023-01-06T10:01:24.149Z,11.18
2023-01-06T10:04:29.941Z,11.09
2023-01-06T10:07:38.978Z,11.09
2023-01-06T10:10:56.608Z,11.20
2023-01-06T10:14:23.595Z,11.05
2023-01-06T10:18:01.778Z,11.02
2023-01-06T10:21:18.979Z,11.08
2023-01-06T10:24:24.645Z,11.11
2023-01-06T10:27:39.467Z,11.35
2023-01-06T10:30:46.276Z,11.65
2023-01-06T10:33:54.030Z,11.37
2023-01-06T10:37:15.533Z,11.81
2023-01-06T10:40:25.618Z,12.29
2023-01-06T10:43:29.157Z,12.97
2023-01-06T10:46:35.726Z,13.39
2023-01-06T10:49:38.589Z,13.64
2023-01-06T10:52:41.248Z,14.00
2023-01-06T10:55:55.004Z,14.24
2023-01-06T10:59:05.781Z,14.47
2023-01-06T11:02:23.430Z,14.49
2023-01-06T11:05:28.892Z,14.61
2023-01-06T11:08:32.593Z,14.39
2023-01-06T11:11:47.464Z,14.53
2023-01-06T11:15:00.074Z,14.69
2023-01-06T11:18:04.271Z,15.00
2023-01-06T11:21:13.200Z,15.40
2023-01-06T11:24:25.375Z,15.71
2023-01-06T11:27:28.104Z,16.06
2023-01-06T11:30:30.523Z,16.09
2023-01-06T11:33:37.981Z,16.16
2023-01-06T11:36:45.617Z,16.55
2023-01-06T11:39:51.995Z,16.82
2023-01-06T11:43:07.553Z,16.72
2023-01-06T11:46:13.045Z,17.07
2023-01-06T11:49:21.572Z,17.06
2023-01-06T11:52:31.383Z,16.83
2023-01-06T11:55:33.920Z,16.50
2023-01-06T11:59:10.890Z,16.50
2023-01-06T12:02:22.974Z,16.58
2023-01-06T12:05:35.248Z,16.49
2023-01-06T12:08:47.582Z,16.41
2023-01-06T12:11:53.112Z,16.37
2023-01-06T12:14:56.634Z,16.47
2023-01-06T12:18:07.811Z,16.62
2023-01-06T12:21:27.783Z,16.73
2023-01-06T12:24:33.477Z,17.08
2023-01-06T12:27:44.041Z,17.21
2023-01-06T12:30:59.844Z,17.43
2023-01-06T12:34:29.650Z,17.45
2023-01-06T12:37:48.345Z,17.43
2023-01-06T12:40:55.947Z,17.19
2023-01-06T12:44:17.681Z,17.21
2023-01-06T12:48:01.645Z,17.36
2023-01-06T12:51:16.294Z,17.60
2023-01-06T12:54:32.776Z,17.80
2023-01-06T12:57:44.085Z,17.49
2023-01-06T13:01:01.626Z,17.36
2023-01-06T13:04:44.365Z,16.81
2023-01-06T13:08:00.382Z,16.17
2023-01-06T13:11:27.839Z,15.59
2023-01-06T13:14:39.935Z,15.11
2023-01-06T13:18:21.481Z,14.68
2023-01-06T13:21:24.949Z,14.27
2023-01-06T13:24:45.661Z,13.83
2023-01-06T13:27:53.813Z,13.71
2023-01-06T13:31:17.503Z,13.44
2023-01-06T13:34:44.541Z,13.22
2023-01-06T13:38:13.785Z,12.83
2023-01-06T13:41:23.963Z,12.68
2023-01-06T13:44:30.388Z,12.48
2023-01-06T13:47:33.334Z,12.31
2023-01-06T13:50:41.171Z,12.14
2023-01-06T13:53:46.099Z,11.87
2023-01-06T13:57:20.589Z,11.88
2023-01-06T14:00:26.854Z,11.76
2023-01-06T14:03:29.599Z,11.46
2023-01-06T14:06:39.905Z,11.56
2023-01-06T14:09:50.328Z,11.55
2023-01-06T14:12:53.596Z,11.52
2023-01-06T14:16:01.946Z,10.90
2023-01-06T14:19:28.485Z,11.26
2023-01-06T14:22:32.061Z,11.20
2023-01-06T14:25:40.400Z,11.16
2023-01-06T14:28:43.021Z,11.18
2023-01-06T14:31:45.403Z,11.05
2023-01-06T14:34:57.889Z,11.14
2023-01-06T14:38:04.973Z,10.86
2023-01-06T14:41:34.847Z,10.73
2023-01-06T14:44:44.518Z,10.69
2023-01-06T14:47:53.699Z,10.79
2023-01-06T14:50:58.968Z,10.73
2023-01-06T14:54:10.014Z,10.69
2023-01-06T14:57:37.260Z,10.65
2023-01-06T15:00:46.067Z,10.62
2023-01-06T15:03:59.991Z,10.47
2023-01-06T15:07:02.609Z,10.47
2023-01-06T15:10:21.170Z,10.54
2023-01-06T15:13:28.473Z,10.49
2023-01-06T15:16:39.376Z,10.41
2023-01-06T15:19:44.275Z,10.22
2023-01-06T15:22:49.296Z,10.30
2023-01-06T15:25:55.014Z,10.07
2023-01-06T15:29:00.977Z,10.18
2023-01-06T15:32:07.138Z,10.17
2023-01-06T15:35:14.547Z,10.10
2023-01-06T15:38:28.505Z,10.11
2023-01-06T15:41:33.096Z,10.06
2023-01-06T15:44:38.452Z,9.85
2023-01-06T15:47:47.046Z,9.79
2023-01-06T15:50:52.058Z,9.88
2023-01-06T15:53:57.589Z,9.88
2023-01-06T15:57:15.221Z,9.65
2023-01-06T16:00:25.221Z,9.64
2023-01-06T16:03:30.788Z,9.54
2023-01-06T16:06:37.159Z,9.49
2023-01-06T16:09:39.805Z,9.49
2023-01-06T16:12:42.182Z,9.40
2023-01-06T16:15:51.765Z,9.53
2023-01-06T16:18:55.099Z,9.37
2023-01-06T16:22:00.630Z,9.50
2023-01-06T16:25:07.810Z,9.29
2023-01-06T16:28:19.235Z,9.39
2023-01-06T16:31:40.439Z,9.43
2023-01-06T16:34:51.383Z,9.35
2023-01-06T16:37:54.125Z,9.38
2023-01-06T16:40:56.724Z,9.22
2023-01-06T16:43:59.051Z,9.15
2023-01-06T16:47:02.603Z,9.31
2023-01-06T16:50:21.639Z,9.33
2023-01-06T16:53:27.760Z,9.33
2023-01-06T16:56:30.090Z,9.31
2023-01-06T16:59:36.136Z,9.17
2023-01-06T17:02:38.838Z,9.32
2023-01-06T17:05:43.344Z,9.31
2023-01-06T17:08:46.685Z,9.15
2023-01-06T17:11:51.162Z,9.30
2023-01-06T17:14:53.464Z,9.21
2023-01-06T17:17:56.106Z,9.24
2023-01-06T17:21:03.936Z,9.12
2023-01-06T17:24:17.204Z,9.25
2023-01-06T17:27:27.942Z,9.21
2023-01-06T17:30:30.633Z,9.17
2023-01-06T17:33:32.994Z,8.99
2023-01-06T17:36:38.485Z,9.06
2023-01-06T17:39:43.545Z,9.09
2023-01-06T17:42:54.100Z,9.04
2023-01-06T17:45:59.445Z,9.02
2023-01-06T17:49:08.373Z,9.01
2023-01-06T17:52:15.313Z,8.97
2023-01-06T17:55:51.402Z,9.00
2023-01-06T17:59:06.867Z,8.57
2023-01-06T18:02:29.465Z,8.96
2023-01-06T18:05:35.575Z,8.92
2023-01-06T18:08:40.814Z,9.02
2023-01-06T18:11:51.748Z,8.98
2023-01-06T18:14:56.735Z,8.94
2023-01-06T18:18:18.173Z,9.04
2023-01-06T18:21:29.569Z,8.98
2023-01-06T18:24:38.223Z,9.04
2023-01-06T18:27:42.841Z,8.94
2023-01-06T18:30:48.613Z,9.11
2023-01-06T18:33:51.321Z,8.87
2023-01-06T18:36:56.027Z,8.92
2023-01-06T18:40:08.428Z,9.08
2023-01-06T18:43:30.105Z,9.09
2023-01-06T18:46:34.468Z,9.14
2023-01-06T18:49:37.180Z,9.18
2023-01-06T18:52:44.107Z,9.07
2023-01-06T18:55:51.192Z,8.97
2023-01-06T18:58:57.272Z,8.90
2023-01-06T19:02:00.971Z,8.96
2023-01-06T19:05:10.995Z,8.96
2023-01-06T19:08:18.361Z,8.95
2023-01-06T19:11:26.309Z,8.83
2023-01-06T19:14:34.342Z,8.80
2023-01-06T19:17:41.971Z,8.81
2023-01-06T19:20:46.626Z,9.00
2023-01-06T19:23:48.984Z,9.05
2023-01-06T19:26:51.673Z,8.76
2023-01-06T19:29:56.484Z,9.04
2023-01-06T19:33:16.225Z,8.97
2023-01-06T19:36:30.833Z,9.08
2023-01-06T19:39:39.763Z,9.06
2023-01-06T19:42:44.699Z,9.03
2023-01-06T19:45:47.398Z,9.02
2023-01-06T19:48:52.159Z,8.92
2023-01-06T19:51:55.117Z,9.00
2023-01-06T19:55:12.289Z,8.85
2023-01-06T19:58:21.169Z,9.02
2023-01-06T20:01:24.203Z,8.80
2023-01-06T20:04:27.807Z,8.89
2023-01-06T20:07:30.145Z,8.74
2023-01-06T20:10:32.856Z,8.80
2023-01-06T20:13:35.261Z,8.70
2023-01-06T20:16:38.182Z,8.59
2023-01-06T20:19:42.877Z,8.62
2023-01-06T20:22:45.716Z,8.57
2023-01-06T20:25:48.108Z,8.51
2023-01-06T20:28:51.884Z,8.50
2023-01-06T20:31:54.298Z,8.33
2023-01-06T20:34:57.674Z,8.32
2023-01-06T20:38:00.112Z,8.50
2023-01-06T20:41:02.816Z,8.52
2023-01-06T20:44:05.290Z,8.56
2023-01-06T20:47:08.269Z,8.63
2023-01-06T20:50:13.704Z,8.65
2023-01-06T20:53:16.453Z,8.54
2023-01-06T20:56:18.796Z,8.71
2023-01-06T20:59:21.504Z,8.72
2023-01-06T21:02:23.966Z,8.72
2023-01-06T21:05:27.005Z,8.76
2023-01-06T21:08:29.464Z,8.43
2023-01-06T21:11:32.866Z,8.78
2023-01-06T21:14:35.467Z,8.72
2023-01-06T21:17:38.406Z,8.67
2023-01-06T21:20:40.917Z,8.70
2023-01-06T21:23:43.563Z,8.64
2023-01-06T21:26:46.221Z,8.65
2023-01-06T21:29:48.976Z,8.75
2023-01-06T21:32:51.859Z,8.68
2023-01-06T21:35:56.013Z,8.49
2023-01-06T21:38:58.342Z,8.59
2023-01-06T21:42:19.549Z,8.58
2023-01-06T21:45:22.193Z,8.51
2023-01-06T21:48:25.891Z,8.56
2023-01-06T21:51:30.968Z,8.65
2023-01-06T21:54:35.269Z,8.62
2023-01-06T21:57:37.734Z,8.55
2023-01-06T22:00:40.474Z,8.60
2023-01-06T22:03:43.198Z,8.69
2023-01-06T22:06:46.976Z,8.57
2023-01-06T22:09:50.714Z,8.76
2023-01-06T22:12:56.581Z,8.62
2023-01-06T22:15:59.701Z,8.40
2023-01-06T22:19:02.176Z,8.78
2023-01-06T22:22:06.009Z,8.77
2023-01-06T22:25:09.107Z,8.73
2023-01-06T22:28:14.323Z,8.58
2023-01-06T22:31:17.921Z,8.51
2023-01-06T22:34:20.676Z,8.64
2023-01-06T22:37:23.103Z,8.65
2023-01-06T22:40:25.977Z,8.45
2023-01-06T22:43:28.412Z,8.60
2023-01-06T22:46:31.631Z,8.27
2023-01-06T22:49:34.061Z,8.38
2023-01-06T22:52:36.766Z,8.42
2023-01-06T22:55:39.155Z,8.49
2023-01-06T22:58:41.930Z,8.47
2023-01-06T23:01:44.429Z,8.43
2023-01-06T23:04:47.163Z,8.44
2023-01-06T23:07:49.567Z,8.23
2023-01-06T23:11:01.608Z,8.20
2023-01-06T23:14:04.149Z,8.16
2023-01-06T23:17:06.783Z,8.31
2023-01-06T23:20:09.723Z,8.27
2023-01-06T23:23:12.295Z,8.27
2023-01-06T23:26:20.973Z,8.21
2023-01-06T23:29:23.683Z,8.12
2023-01-06T23:32:26.071Z,8.03
2023-01-06T23:35:32.115Z,8.01
2023-01-06T23:38:36.930Z,8.01
2023-01-06T23:41:39.910Z,7.99
2023-01-06T23:44:42.257Z,7.96
2023-01-06T23:47:45.873Z,7.93
2023-01-06T23:50:53.775Z,7.80
2023-01-06T23:53:56.819Z,7.86
2023-01-06T23:56:59.457Z,7.73
